Airfield :
LOGIN :

Register | Disclaimer

   EN    FR    IT 

 










Legend :    VFR   Marginal VFR   IFR   Intensive IFR   Very Intensive IFR
Visi :
Ceiling :
>= 8 km
>= 3000ft
5 to 8 km
1000 to 3000 ft
1500m to 5 km
500 to 1000 ft
800 to 1500m
200 to 500 ft
< 800m
< 200 ft
Symbols :   Thunderstorms  Fog  Heavy snow  Heavy precipitations  Wind > 20 kt
SIGMETs :     Misc.  Thunderstorms  Icing  Turbulence  Mountain Waves  Volcanic Ashes






- Airport Elevation : 290 ft
- IATA code : LAI


LFRO - Lannion

CURRENT METAR :
  • 302030Z AUTO 24004KT 210V290 9999 OVC009 13/13 Q1005

EXPIRED METARs :
  • 302000Z AUTO 23006KT 9999 BKN010 BKN015 OVC054 13/13 Q1005
  • 301930Z AUTO 25007KT 9999 FEW009 SCT017 BKN047 13/13 Q1005
  • 301900Z AUTO 25007KT 9999 FEW016 OVC043 13/13 Q1005
  • 301830Z AUTO 25007KT 9999 -RA SCT007 BKN026 OVC031 13/13 Q1005
  • 301800Z AUTO 27010KT 6000 -RA BKN007/// OVC014/// ///TCU 13/13 Q1005

Expired Forecast.



MET'MAP, your aeronautical weather chart ! - Copyright ORBIFLY December 2007 - Disclaimer

ORBIFLY MET'MAP TEAM :

Programming & Development : Alexandra Zaïnal
Concept & original design : Baudouin d'Aumeries
Assistance for programming : Marc-Olivier Méhu
Technical & hardware support : Manuel Goepfert

Contact : metmap@orbifly.com




SOURCES & CREDITS :

   NOAA